createdAt,value
2018-04-11T00:00:11.992Z,33.93
2018-04-11T00:02:39.674Z,38.07
2018-04-11T00:05:07.350Z,30.07
2018-04-11T00:07:35.024Z,39.27
2018-04-11T00:10:02.696Z,32.30
2018-04-11T00:12:30.363Z,36.00
2018-04-11T00:14:58.030Z,38.07
2018-04-11T00:17:25.833Z,41.80
2018-04-11T00:19:53.902Z,36.87
2018-04-11T00:22:21.584Z,53.43
2018-04-11T00:24:49.255Z,36.30
2018-04-11T00:27:17.017Z,38.93
2018-04-11T00:29:44.695Z,36.13
2018-04-11T00:32:12.392Z,36.37
2018-04-11T00:34:40.053Z,40.07
2018-04-11T00:37:07.732Z,48.50
2018-04-11T00:39:35.394Z,33.23
2018-04-11T00:42:03.057Z,41.57
2018-04-11T00:44:30.747Z,38.70
2018-04-11T00:46:58.511Z,44.37
2018-04-11T00:49:26.158Z,43.63
2018-04-11T00:51:54.250Z,41.53
2018-04-11T00:54:21.923Z,40.73
2018-04-11T00:56:49.664Z,48.17
2018-04-11T00:59:17.745Z,50.03
2018-04-11T01:01:45.508Z,41.20
2018-04-11T01:04:13.169Z,43.90
2018-04-11T01:06:40.914Z,45.53
2018-04-11T01:09:08.951Z,35.67
2018-04-11T01:11:36.593Z,34.60
2018-04-11T01:14:04.269Z,49.40
2018-04-11T01:16:32.156Z,46.50
2018-04-11T01:18:59.806Z,46.10
2018-04-11T01:21:27.498Z,35.77
2018-04-11T01:23:55.576Z,43.30
2018-04-11T01:26:23.655Z,43.70
2018-04-11T01:28:51.725Z,36.83
2018-04-11T01:31:19.775Z,45.03
2018-04-11T01:33:47.491Z,38.13
2018-04-11T01:36:15.222Z,44.90
2018-04-11T01:38:43.276Z,37.10
2018-04-11T01:41:10.936Z,43.10
2018-04-11T01:43:38.584Z,36.70
2018-04-11T01:46:06.281Z,45.17
2018-04-11T01:48:34.331Z,40.80
2018-04-11T01:51:01.984Z,36.90
2018-04-11T01:53:29.641Z,39.30
2018-04-11T01:55:57.337Z,39.90
2018-04-11T01:58:25.384Z,44.43
2018-04-11T02:00:53.050Z,38.03
2018-04-11T02:03:20.750Z,46.47
2018-04-11T02:05:48.499Z,36.00
2018-04-11T02:08:16.568Z,46.17
2018-04-11T02:10:44.659Z,65.60
2018-04-11T02:13:12.405Z,44.30
2018-04-11T02:15:40.477Z,50.73
2018-04-11T02:18:08.558Z,40.57
2018-04-11T02:20:36.254Z,44.33
2018-04-11T02:23:03.918Z,48.30
2018-04-11T02:25:31.602Z,40.53
2018-04-11T02:27:59.262Z,42.27
2018-04-11T02:30:26.942Z,48.07
2018-04-11T02:32:54.594Z,45.60
2018-04-11T02:35:24.414Z,43.00
2018-04-11T02:37:52.071Z,43.63
2018-04-11T02:40:19.730Z,45.10
2018-04-11T02:42:47.495Z,43.43
2018-04-11T02:45:15.154Z,47.50
2018-04-11T02:47:42.859Z,46.00
2018-04-11T02:50:10.512Z,39.77
2018-04-11T02:52:38.199Z,44.87
2018-04-11T02:55:05.871Z,53.10
2018-04-11T02:57:33.729Z,46.17
2018-04-11T03:00:01.390Z,55.00
2018-04-11T03:02:29.507Z,46.37
2018-04-11T03:04:57.174Z,47.70
2018-04-11T03:07:24.829Z,51.23
2018-04-11T03:09:52.535Z,51.00
2018-04-11T03:12:20.196Z,57.20
2018-04-11T03:14:47.923Z,58.83
2018-04-11T03:17:15.621Z,58.67
2018-04-11T03:19:43.275Z,58.93
2018-04-11T03:22:10.949Z,53.80
2018-04-11T03:24:38.627Z,51.37
2018-04-11T03:27:06.283Z,61.53
2018-04-11T03:29:34.067Z,53.97
2018-04-11T03:32:01.734Z,52.70
2018-04-11T03:34:29.382Z,46.83
2018-04-11T03:36:57.118Z,50.17
2018-04-11T03:39:25.178Z,57.83
2018-04-11T03:41:53.260Z,47.13
2018-04-11T03:44:21.322Z,54.93
2018-04-11T03:46:49.010Z,52.77
2018-04-11T03:49:16.662Z,47.13
2018-04-11T03:51:44.416Z,51.40
2018-04-11T03:54:12.490Z,59.57
2018-04-11T03:56:40.559Z,47.53
2018-04-11T03:59:08.334Z,50.20
2018-04-11T04:01:36.115Z,44.67
2018-04-11T04:04:04.153Z,45.33
2018-04-11T04:06:32.226Z,56.87
2018-04-11T04:09:00.273Z,50.90
2018-04-11T04:11:27.970Z,51.73
2018-04-11T04:14:07.578Z,49.27
2018-04-11T04:16:47.099Z,52.73
2018-04-11T04:19:26.575Z,45.80
2018-04-11T04:21:54.664Z,44.70
2018-04-11T04:24:22.790Z,47.73
2018-04-11T04:26:50.481Z,55.20
2018-04-11T04:29:18.525Z,60.53
2018-04-11T04:31:46.205Z,48.93
2018-04-11T04:34:13.863Z,57.97
2018-04-11T04:36:41.533Z,54.97
2018-04-11T04:39:09.195Z,50.63
2018-04-11T04:41:36.877Z,51.43
2018-04-11T04:44:04.948Z,58.80
2018-04-11T04:46:32.617Z,59.00
2018-04-11T04:49:00.654Z,54.17
2018-04-11T04:51:28.341Z,51.93
2018-04-11T04:53:56.388Z,49.70
2018-04-11T04:56:24.048Z,57.13
2018-04-11T04:58:51.710Z,52.40
2018-04-11T05:01:19.377Z,46.73
2018-04-11T05:03:47.025Z,50.23
2018-04-11T05:06:14.683Z,56.03
2018-04-11T05:08:42.361Z,51.93
2018-04-11T05:11:10.022Z,45.37
2018-04-11T05:13:37.732Z,57.10
2018-04-11T05:16:05.377Z,46.80
2018-04-11T05:18:33.436Z,48.93
2018-04-11T05:21:01.104Z,50.20
2018-04-11T05:23:29.316Z,49.53
2018-04-11T05:25:56.998Z,50.47
2018-04-11T05:28:24.663Z,48.23
2018-04-11T05:30:52.366Z,44.60
2018-04-11T05:33:20.470Z,45.07
2018-04-11T05:35:48.164Z,47.50
2018-04-11T05:38:15.847Z,51.83
2018-04-11T05:40:43.512Z,51.00
2018-04-11T05:43:11.173Z,54.77
2018-04-11T05:45:38.838Z,49.67
2018-04-11T05:48:06.878Z,56.93
2018-04-11T05:50:34.561Z,57.33
2018-04-11T05:53:02.243Z,57.27
2018-04-11T05:55:30.325Z,68.00
2018-04-11T05:57:57.973Z,55.90
2018-04-11T06:00:25.738Z,53.50
2018-04-11T06:02:53.773Z,47.67
2018-04-11T06:05:21.427Z,47.87
2018-04-11T06:07:49.101Z,47.53
2018-04-11T06:10:16.798Z,50.83
2018-04-11T06:12:44.868Z,42.20
2018-04-11T06:15:12.941Z,38.37
2018-04-11T06:17:41.040Z,52.20
2018-04-11T06:20:08.815Z,34.93
2018-04-11T06:22:36.509Z,32.10
2018-04-11T06:25:04.165Z,49.03
2018-04-11T06:27:31.890Z,37.70
2018-04-11T06:29:59.634Z,35.87
2018-04-11T06:32:27.705Z,35.70
2018-04-11T06:34:55.390Z,36.93
2018-04-11T06:37:23.153Z,36.47
2018-04-11T06:39:50.825Z,34.50
2018-04-11T06:42:18.482Z,33.13
2018-04-11T06:44:46.679Z,36.03
2018-04-11T06:47:14.429Z,35.43
2018-04-11T06:49:42.117Z,36.50
2018-04-11T06:52:09.782Z,32.70
2018-04-11T06:54:37.457Z,35.67
2018-04-11T06:57:05.140Z,25.67
2018-04-11T06:59:33.195Z,27.40
2018-04-11T07:02:00.863Z,24.63
2018-04-11T07:04:28.553Z,37.93
2018-04-11T07:06:56.304Z,28.50
2018-04-11T07:09:24.393Z,32.70
2018-04-11T07:11:52.131Z,30.00
2018-04-11T07:14:20.179Z,26.10
2018-04-11T07:16:47.828Z,31.67
2018-04-11T07:19:15.493Z,27.93
2018-04-11T07:21:43.219Z,22.87
2018-04-11T07:24:10.875Z,37.13
2018-04-11T07:26:38.532Z,23.57
2018-04-11T07:29:06.595Z,24.77
2018-04-11T07:31:34.651Z,21.67
2018-04-11T07:34:02.813Z,25.20
2018-04-11T07:36:30.476Z,24.87
2018-04-11T07:38:58.129Z,34.10
2018-04-11T07:41:25.815Z,29.23
2018-04-11T07:43:53.472Z,29.03
2018-04-11T07:46:21.132Z,23.20
2018-04-11T07:48:48.819Z,26.83
2018-04-11T07:51:16.877Z,20.20
2018-04-11T07:53:44.536Z,20.00
2018-04-11T07:56:12.622Z,32.97
2018-04-11T07:58:40.680Z,24.63
2018-04-11T08:01:08.751Z,26.33
2018-04-11T08:03:36.404Z,22.73
2018-04-11T08:06:04.108Z,21.50
2018-04-11T08:08:31.864Z,19.40
2018-04-11T08:11:00.260Z,21.60
2018-04-11T08:13:27.949Z,22.40
2018-04-11T08:15:55.661Z,20.87
2018-04-11T08:18:23.322Z,18.40
2018-04-11T08:20:51.367Z,19.20
2018-04-11T08:23:19.058Z,19.90
2018-04-11T08:25:47.097Z,21.57
2018-04-11T08:28:14.762Z,21.83
2018-04-11T08:30:42.424Z,26.50
2018-04-11T08:33:10.085Z,21.90
2018-04-11T08:35:37.741Z,19.93
2018-04-11T08:38:05.409Z,21.67
2018-04-11T08:40:33.064Z,17.43
2018-04-11T08:43:00.783Z,22.60
2018-04-11T08:45:28.458Z,25.33
2018-04-11T08:47:56.135Z,18.00
2018-04-11T08:50:23.857Z,22.90
2018-04-11T08:52:51.522Z,20.20
2018-04-11T08:55:19.212Z,19.30
2018-04-11T08:57:46.858Z,26.27
2018-04-11T09:00:14.506Z,19.97
2018-04-11T09:02:42.167Z,19.53
2018-04-11T09:05:09.828Z,20.50
2018-04-11T09:07:37.492Z,21.70
2018-04-11T09:10:05.157Z,25.07
2018-04-11T09:12:32.827Z,18.60
2018-04-11T09:15:00.491Z,20.37
2018-04-11T09:17:28.168Z,23.23
2018-04-11T09:19:55.897Z,16.70
2018-04-11T09:22:23.944Z,26.33
2018-04-11T09:24:51.656Z,17.90
2018-04-11T09:27:19.307Z,17.80
2018-04-11T09:29:47.024Z,15.60
2018-04-11T09:32:14.718Z,24.43
2018-04-11T09:34:42.766Z,14.27
2018-04-11T09:37:10.418Z,14.20
2018-04-11T09:39:38.073Z,21.10
2018-04-11T09:42:05.733Z,13.83
2018-04-11T09:44:33.446Z,19.10
2018-04-11T09:47:01.140Z,23.87
2018-04-11T09:49:28.833Z,16.10
2018-04-11T09:51:56.495Z,19.87
2018-04-11T09:54:24.177Z,17.40
2018-04-11T09:56:52.271Z,18.10
2018-04-11T09:59:19.922Z,18.10
2018-04-11T10:01:50.817Z,16.57
2018-04-11T10:04:18.523Z,20.30
2018-04-11T10:06:46.595Z,17.80
2018-04-11T10:09:14.669Z,22.50
2018-04-11T10:11:42.725Z,21.00
2018-04-11T10:14:10.602Z,16.23
2018-04-11T10:16:39.066Z,16.90
2018-04-11T10:19:06.769Z,17.67
2018-04-11T10:21:34.378Z,17.00
2018-04-11T10:24:02.046Z,19.30
2018-04-11T10:26:29.727Z,26.33
2018-04-11T10:28:57.776Z,26.43
2018-04-11T10:31:25.434Z,21.47
2018-04-11T10:33:53.118Z,21.03
2018-04-11T10:36:21.181Z,22.90
2018-04-11T10:38:48.882Z,28.13
2018-04-11T10:41:16.546Z,22.77
2018-04-11T10:43:44.202Z,21.03
2018-04-11T10:46:12.517Z,23.43
2018-04-11T10:48:40.176Z,23.57
2018-04-11T10:51:07.816Z,25.37
2018-04-11T10:53:35.458Z,28.83
2018-04-11T10:56:03.201Z,28.20
2018-04-11T10:58:31.913Z,21.87
2018-04-11T11:00:59.935Z,23.73
2018-04-11T11:03:27.645Z,27.13
2018-04-11T11:05:55.408Z,31.13
2018-04-11T11:08:23.063Z,25.03
2018-04-11T11:10:51.204Z,35.03
2018-04-11T11:13:18.865Z,25.43
2018-04-11T11:15:46.564Z,25.70
2018-04-11T11:18:14.617Z,31.60
2018-04-11T11:20:54.695Z,27.70
2018-04-11T11:23:22.433Z,29.63
2018-04-11T11:25:50.496Z,32.90
2018-04-11T11:28:18.172Z,34.60
2018-04-11T11:30:45.853Z,34.30
2018-04-11T11:33:13.622Z,40.33
2018-04-11T11:35:42.308Z,30.73
2018-04-11T11:38:10.462Z,35.00
2018-04-11T11:40:38.539Z,34.50
2018-04-11T11:43:06.573Z,33.63
2018-04-11T11:45:34.243Z,43.90
2018-04-11T11:48:02.307Z,47.70
2018-04-11T11:50:29.967Z,41.37
2018-04-11T11:52:57.765Z,36.70
2018-04-11T11:55:25.429Z,36.37
2018-04-11T11:57:53.465Z,33.83
2018-04-11T12:00:21.129Z,33.77
2018-04-11T12:02:48.807Z,34.87
2018-04-11T12:05:16.478Z,39.43
2018-04-11T12:07:44.527Z,40.87
2018-04-11T12:10:12.251Z,43.50
2018-04-11T12:12:39.899Z,39.27
2018-04-11T12:15:07.593Z,49.90
2018-04-11T12:17:35.252Z,51.00
2018-04-11T12:20:02.911Z,41.50
2018-04-11T12:22:30.572Z,45.73
2018-04-11T12:24:58.302Z,40.77
2018-04-11T12:27:25.997Z,39.03
2018-04-11T12:29:53.691Z,44.17
2018-04-11T12:32:21.351Z,39.23
2018-04-11T12:34:49.003Z,37.53
2018-04-11T12:37:16.693Z,41.03
2018-04-11T12:39:44.330Z,46.90
2018-04-11T12:42:11.994Z,39.70
2018-04-11T12:44:39.632Z,40.63
2018-04-11T12:47:07.458Z,45.37
2018-04-11T12:49:35.519Z,44.87
2018-04-11T12:52:03.216Z,60.27
2018-04-11T12:54:30.891Z,40.80
2018-04-11T12:56:58.592Z,44.07
2018-04-11T12:59:26.313Z,48.53
2018-04-11T13:01:54.037Z,54.90
2018-04-11T13:04:22.135Z,50.27
2018-04-11T13:06:49.790Z,51.53
2018-04-11T13:09:17.435Z,47.30
2018-04-11T13:11:45.510Z,46.63
2018-04-11T13:14:13.721Z,45.90
2018-04-11T13:16:41.377Z,55.47
2018-04-11T13:19:09.021Z,59.20
2018-04-11T13:21:36.683Z,50.10
2018-04-11T13:24:04.744Z,43.07
2018-04-11T13:26:32.951Z,42.93
2018-04-11T13:29:00.822Z,53.47
2018-04-11T13:31:28.481Z,45.87
2018-04-11T13:33:56.245Z,49.70
2018-04-11T13:36:24.085Z,53.03
2018-04-11T13:38:52.117Z,50.93
2018-04-11T13:41:19.774Z,49.50
2018-04-11T13:43:47.412Z,44.60
2018-04-11T13:46:15.074Z,50.73
2018-04-11T13:48:42.797Z,53.00
2018-04-11T13:51:11.446Z,44.67
2018-04-11T13:53:39.139Z,55.00
2018-04-11T13:56:07.209Z,47.03
2018-04-11T13:58:34.871Z,53.70
2018-04-11T14:01:02.531Z,51.00
2018-04-11T14:03:31.184Z,44.20
2018-04-11T14:05:58.846Z,45.30
2018-04-11T14:08:26.513Z,47.83
2018-04-11T14:10:54.175Z,50.53
2018-04-11T14:13:21.836Z,51.73
2018-04-11T14:15:49.520Z,51.63
2018-04-11T14:18:17.156Z,50.30
2018-04-11T14:20:44.813Z,55.00
2018-04-11T14:23:12.454Z,55.03
2018-04-11T14:25:40.113Z,54.00
2018-04-11T14:28:07.808Z,52.10
2018-04-11T14:30:35.473Z,50.83
2018-04-11T14:33:03.131Z,60.73
2018-04-11T14:35:30.839Z,53.00
2018-04-11T14:37:58.917Z,46.47
2018-04-11T14:40:26.978Z,55.73
2018-04-11T14:42:55.029Z,50.40
2018-04-11T14:45:22.745Z,50.00
2018-04-11T14:47:50.384Z,49.33
2018-04-11T14:50:18.052Z,47.70
2018-04-11T14:52:45.699Z,55.37
2018-04-11T14:55:13.766Z,44.80
2018-04-11T14:57:41.837Z,57.67
2018-04-11T15:00:09.974Z,52.63
2018-04-11T15:02:37.648Z,40.50
2018-04-11T15:05:05.301Z,44.50
2018-04-11T15:07:33.017Z,42.43
2018-04-11T15:10:00.769Z,44.20
2018-04-11T15:12:28.821Z,40.93
2018-04-11T15:14:56.454Z,40.17
2018-04-11T15:17:24.109Z,42.57
2018-04-11T15:19:51.771Z,60.07
2018-04-11T15:22:19.484Z,46.37
2018-04-11T15:24:47.529Z,43.90
2018-04-11T15:27:15.236Z,47.30
2018-04-11T15:29:42.985Z,44.03
2018-04-11T15:32:11.084Z,47.53
2018-04-11T15:34:38.746Z,40.80
2018-04-11T15:39:40.977Z,41.70
2018-04-11T15:42:08.669Z,43.60
2018-04-11T15:44:36.458Z,48.20
2018-04-11T15:47:04.757Z,52.53
2018-04-11T15:49:32.577Z,46.10
2018-04-11T15:52:00.236Z,50.90
2018-04-11T15:54:28.374Z,45.47
2018-04-11T15:56:56.045Z,54.73
2018-04-11T15:59:23.737Z,52.33
2018-04-11T16:01:51.806Z,46.37
2018-04-11T16:04:19.470Z,46.33
2018-04-11T16:06:47.541Z,55.77
2018-04-11T16:09:15.203Z,50.83
2018-04-11T16:11:43.293Z,55.90
2018-04-11T16:14:10.954Z,58.13
2018-04-11T16:16:38.623Z,58.00
2018-04-11T16:19:06.286Z,49.63
2018-04-11T16:21:34.022Z,46.70
2018-04-11T16:24:01.682Z,47.93
2018-04-11T16:26:29.745Z,48.30
2018-04-11T16:28:57.605Z,51.23
2018-04-11T16:31:25.282Z,53.67
2018-04-11T16:33:53.384Z,44.13
2018-04-11T16:36:21.137Z,45.83
2018-04-11T16:38:48.802Z,44.60
2018-04-11T16:41:16.460Z,52.10
2018-04-11T16:43:44.493Z,48.23
2018-04-11T16:46:12.159Z,47.50
2018-04-11T16:48:39.803Z,49.63
2018-04-11T16:51:07.474Z,44.53
2018-04-11T16:53:35.143Z,45.80
2018-04-11T16:56:02.806Z,42.77
2018-04-11T16:58:30.465Z,56.70
2018-04-11T17:00:58.173Z,46.63
2018-04-11T17:03:25.833Z,53.77
2018-04-11T17:05:53.578Z,45.87
2018-04-11T17:08:21.650Z,44.43
2018-04-11T17:10:49.715Z,52.00
2018-04-11T17:13:17.781Z,46.97
2018-04-11T17:15:45.442Z,41.73
2018-04-11T17:18:13.131Z,53.53
2018-04-11T17:20:52.593Z,46.20
2018-04-11T17:23:32.117Z,54.83
2018-04-11T17:26:11.567Z,46.00
2018-04-11T17:28:51.081Z,49.10
2018-04-11T17:31:22.608Z,50.47
2018-04-11T17:33:50.252Z,48.03
2018-04-11T17:36:17.936Z,46.03
2018-04-11T17:38:45.647Z,47.57
2018-04-11T17:41:13.421Z,48.97
2018-04-11T17:43:41.079Z,47.67
2018-04-11T17:46:08.764Z,56.13
2018-04-11T17:48:36.440Z,49.57
2018-04-11T17:51:04.256Z,49.63
2018-04-11T17:53:32.013Z,51.70
2018-04-11T17:55:59.798Z,51.43
2018-04-11T17:58:27.634Z,59.70
2018-04-11T18:00:55.714Z,56.57
2018-04-11T18:03:23.658Z,61.03
2018-04-11T18:05:51.345Z,61.77
2018-04-11T18:08:19.082Z,60.10
2018-04-11T18:10:46.784Z,59.50
2018-04-11T18:13:14.464Z,62.47
2018-04-11T18:15:42.143Z,55.53
2018-04-11T18:18:09.822Z,73.70
2018-04-11T18:20:37.502Z,70.83
2018-04-11T18:23:05.591Z,58.50
2018-04-11T18:25:33.656Z,59.27
2018-04-11T18:28:01.353Z,62.70
2018-04-11T18:30:29.020Z,58.13
2018-04-11T18:32:56.682Z,62.07
2018-04-11T18:35:24.351Z,65.40
2018-04-11T18:37:52.028Z,71.43
2018-04-11T18:40:19.722Z,58.23
2018-04-11T18:42:47.788Z,59.13
2018-04-11T18:45:15.444Z,59.93
2018-04-11T18:47:43.099Z,62.70
2018-04-11T18:50:10.946Z,57.07
2018-04-11T18:52:38.612Z,63.43
2018-04-11T18:55:06.578Z,74.73
2018-04-11T18:57:34.255Z,65.73
2018-04-11T19:00:02.011Z,55.43
2018-04-11T19:02:29.714Z,61.83
2018-04-11T19:04:57.933Z,63.17
2018-04-11T19:07:25.633Z,61.50
2018-04-11T19:09:53.462Z,57.57
2018-04-11T19:12:21.143Z,60.63
2018-04-11T19:14:48.906Z,58.60
2018-04-11T19:17:16.634Z,66.47
2018-04-11T19:19:44.438Z,65.03
2018-04-11T19:22:12.245Z,62.93
2018-04-11T19:24:39.891Z,65.40
2018-04-11T19:27:08.070Z,62.03
2018-04-11T19:29:36.151Z,54.63
2018-04-11T19:32:06.918Z,58.37
2018-04-11T19:34:34.684Z,60.43
2018-04-11T19:37:04.382Z,59.53
2018-04-11T19:39:32.046Z,64.70
2018-04-11T19:41:59.746Z,57.70
2018-04-11T19:44:27.460Z,61.80
2018-04-11T19:46:55.552Z,57.67
2018-04-11T19:49:23.322Z,59.90
2018-04-11T19:51:50.979Z,61.27
2018-04-11T19:54:18.675Z,53.23
2018-04-11T19:56:46.407Z,60.20
2018-04-11T19:59:14.075Z,68.47
2018-04-11T20:01:41.794Z,56.40
2018-04-11T20:04:09.900Z,60.30
2018-04-11T20:06:37.632Z,62.30
2018-04-11T20:09:05.708Z,62.40
2018-04-11T20:11:33.770Z,57.57
2018-04-11T20:14:01.808Z,62.07
2018-04-11T20:16:29.461Z,57.17
2018-04-11T20:18:57.135Z,58.47
2018-04-11T20:21:24.813Z,64.17
2018-04-11T20:23:52.465Z,58.17
2018-04-11T20:26:20.128Z,58.70
2018-04-11T20:28:47.789Z,61.83
2018-04-11T20:31:15.446Z,56.13
2018-04-11T20:33:43.107Z,61.43
2018-04-11T20:36:10.754Z,59.10
2018-04-11T20:38:38.395Z,57.93
2018-04-11T20:41:06.076Z,62.13
2018-04-11T20:43:33.749Z,63.03
2018-04-11T20:46:01.437Z,63.30
2018-04-11T20:48:29.134Z,63.00
2018-04-11T20:50:56.802Z,63.27
2018-04-11T20:53:24.473Z,79.40
2018-04-11T20:55:52.132Z,58.77
2018-04-11T20:58:19.807Z,68.90
2018-04-11T21:00:47.479Z,59.50
2018-04-11T21:03:15.135Z,57.20
2018-04-11T21:05:42.823Z,63.30
2018-04-11T21:08:10.469Z,61.43
2018-04-11T21:10:38.124Z,67.70
2018-04-11T21:13:05.790Z,67.97
2018-04-11T21:15:33.530Z,59.63
2018-04-11T21:18:01.191Z,66.07
2018-04-11T21:20:28.981Z,62.60
2018-04-11T21:22:56.645Z,61.47
2018-04-11T21:25:24.336Z,63.27
2018-04-11T21:27:52.039Z,61.17
2018-04-11T21:30:19.728Z,60.87
2018-04-11T21:32:47.385Z,58.10
2018-04-11T21:35:15.211Z,61.20
2018-04-11T21:37:42.873Z,54.23
2018-04-11T21:40:10.981Z,55.93
2018-04-11T21:42:38.658Z,59.00
2018-04-11T21:45:06.365Z,58.10
2018-04-11T21:47:34.398Z,60.53
2018-04-11T21:50:02.041Z,63.60
2018-04-11T21:52:29.715Z,55.33
2018-04-11T21:54:57.401Z,60.93
2018-04-11T21:57:25.470Z,56.37
2018-04-11T21:59:53.325Z,60.50
2018-04-11T22:02:20.969Z,56.77
2018-04-11T22:04:48.638Z,57.33
2018-04-11T22:07:16.324Z,56.47
2018-04-11T22:09:43.977Z,60.90
2018-04-11T22:12:11.676Z,55.40
2018-04-11T22:14:39.719Z,57.17
2018-04-11T22:17:07.374Z,60.27
2018-04-11T22:19:35.044Z,51.73
2018-04-11T22:22:02.742Z,57.97
2018-04-11T22:24:30.766Z,49.73
2018-04-11T22:26:58.869Z,54.73
2018-04-11T22:29:26.922Z,60.30
2018-04-11T22:31:54.744Z,54.20
2018-04-11T22:34:22.446Z,58.47
2018-04-11T22:36:50.143Z,63.43
2018-04-11T22:39:17.789Z,55.80
2018-04-11T22:41:45.869Z,54.27
2018-04-11T22:44:13.910Z,58.63
2018-04-11T22:46:41.573Z,59.60
2018-04-11T22:49:09.230Z,52.47
2018-04-11T22:51:36.892Z,50.80
2018-04-11T22:54:04.537Z,54.33
2018-04-11T22:56:32.484Z,56.83
2018-04-11T22:59:00.182Z,49.40
2018-04-11T23:01:27.842Z,58.03
2018-04-11T23:03:55.515Z,54.07
2018-04-11T23:06:23.174Z,57.30
2018-04-11T23:08:50.814Z,47.97
2018-04-11T23:11:18.505Z,56.03
2018-04-11T23:13:46.181Z,54.47
2018-04-11T23:16:13.873Z,50.00
2018-04-11T23:18:41.547Z,51.90
2018-04-11T23:21:09.224Z,51.70
2018-04-11T23:23:36.898Z,53.50
2018-04-11T23:26:04.573Z,55.93
2018-04-11T23:28:32.286Z,60.47
2018-04-11T23:30:59.945Z,55.23
2018-04-11T23:33:27.614Z,53.03
2018-04-11T23:35:55.298Z,45.47
2018-04-11T23:38:23.409Z,57.83
2018-04-11T23:40:51.109Z,53.60
2018-04-11T23:43:18.853Z,50.03
2018-04-11T23:45:46.926Z,65.63
2018-04-11T23:48:14.965Z,47.50
2018-04-11T23:50:42.611Z,50.50
2018-04-11T23:53:10.290Z,51.23
2018-04-11T23:55:38.182Z,54.63
2018-04-11T23:58:06.253Z,48.70
